Terminal Aerodrome Forecast
Issued by NWS Paducah, KY

Home | Current Version | Previous Version | Text Only | Print | Product List | Glossary On
Versions: 1 2 3 4 5 6 7 8 9 10 11 12
000
FTUS43 KPAH 020520
TAFPAH
TAF
KPAH 020520Z 0206/0306 VRB02KT P6SM SCT150
      TEMPO 0209/0212 5SM BR
     FM021400 18006KT P6SM SCT250
     FM030100 18004KT P6SM SCT250=

USA.gov is the U.S. government's official web portal to all federal, state and local government web resources and services.